createdAt,value
2022-10-16T00:01:29.109Z,84.90
2022-10-16T00:03:58.046Z,90.20
2022-10-16T00:06:26.436Z,87.90
2022-10-16T00:08:54.418Z,89.63
2022-10-16T00:11:28.348Z,93.57
2022-10-16T00:13:59.170Z,95.05
2022-10-16T00:16:27.739Z,81.57
2022-10-16T00:18:55.531Z,94.32
2022-10-16T00:21:25.542Z,92.03
2022-10-16T00:23:55.162Z,104.63
2022-10-16T00:26:23.009Z,90.28
2022-10-16T00:28:51.846Z,87.35
2022-10-16T00:31:22.050Z,96.75
2022-10-16T00:33:50.213Z,77.35
2022-10-16T00:36:21.317Z,92.68
2022-10-16T00:38:51.033Z,85.35
2022-10-16T00:41:18.747Z,89.47
2022-10-16T00:43:58.184Z,79.72
2022-10-16T00:46:28.646Z,87.38
2022-10-16T00:49:05.879Z,81.90
2022-10-16T00:51:38.958Z,106.05
2022-10-16T00:54:12.722Z,88.60
2022-10-16T00:56:40.831Z,92.90
2022-10-16T00:59:19.078Z,91.15
2022-10-16T01:01:46.479Z,87.00
2022-10-16T01:04:14.175Z,93.05
2022-10-16T01:07:02.941Z,78.93
2022-10-16T01:10:00.153Z,89.40
2022-10-16T01:13:04.229Z,85.85
2022-10-16T01:15:45.482Z,95.05
2022-10-16T01:18:17.980Z,83.25
2022-10-16T01:21:02.172Z,95.32
2022-10-16T01:23:50.030Z,84.65
2022-10-16T01:26:26.497Z,90.53
2022-10-16T01:29:02.778Z,76.97
2022-10-16T01:31:34.743Z,90.80
2022-10-16T01:36:50.235Z,82.10
2022-10-16T01:39:23.910Z,85.07
2022-10-16T01:41:59.997Z,81.20
2022-10-16T01:44:31.916Z,95.55
2022-10-16T01:49:34.840Z,92.28
2022-10-16T01:52:07.362Z,88.18
2022-10-16T01:54:37.869Z,94.53
2022-10-16T01:57:08.171Z,88.65
2022-10-16T01:59:44.567Z,97.60
2022-10-16T02:02:13.589Z,90.53
2022-10-16T02:04:48.550Z,85.95
2022-10-16T02:07:16.693Z,95.43
2022-10-16T02:09:44.342Z,98.63
2022-10-16T02:12:24.962Z,89.40
2022-10-16T02:14:52.713Z,88.03
2022-10-16T02:17:20.302Z,92.55
2022-10-16T02:19:50.229Z,83.32
2022-10-16T02:22:29.009Z,82.93
2022-10-16T02:25:09.323Z,96.82
2022-10-16T02:27:57.309Z,94.28
2022-10-16T02:30:42.558Z,97.75
2022-10-16T02:33:14.603Z,94.28
2022-10-16T02:35:44.443Z,89.28
2022-10-16T02:38:12.878Z,80.10
2022-10-16T02:40:40.979Z,89.82
2022-10-16T02:43:08.844Z,85.10
2022-10-16T02:45:36.381Z,86.63
2022-10-16T02:48:03.972Z,101.05
2022-10-16T02:50:31.221Z,99.03
2022-10-16T02:52:58.482Z,85.32
2022-10-16T02:55:26.098Z,86.57
2022-10-16T02:57:53.492Z,83.30
2022-10-16T03:00:21.255Z,92.65
2022-10-16T03:02:48.816Z,93.93
2022-10-16T03:05:16.434Z,94.35
2022-10-16T03:07:43.938Z,91.32
2022-10-16T03:10:11.616Z,86.53
2022-10-16T03:12:39.033Z,91.00
2022-10-16T03:15:07.815Z,89.30
2022-10-16T03:17:35.727Z,81.20
2022-10-16T03:20:04.122Z,91.30
2022-10-16T03:22:31.955Z,91.50
2022-10-16T03:24:59.312Z,90.70
2022-10-16T03:27:27.001Z,88.60
2022-10-16T03:29:54.584Z,89.70
2022-10-16T03:32:22.637Z,95.25
2022-10-16T03:34:49.976Z,90.22
2022-10-16T03:37:17.428Z,90.38
2022-10-16T03:39:44.755Z,94.22
2022-10-16T03:42:12.135Z,89.32
2022-10-16T03:44:39.464Z,97.53
2022-10-16T03:47:06.839Z,97.07
2022-10-16T03:49:34.192Z,84.15
2022-10-16T03:52:01.534Z,88.07
2022-10-16T03:54:28.971Z,86.57
2022-10-16T03:56:56.318Z,95.85
2022-10-16T03:59:23.835Z,94.38
2022-10-16T04:01:51.137Z,89.57
2022-10-16T04:04:18.977Z,97.60
2022-10-16T04:06:46.292Z,95.82
2022-10-16T04:09:13.708Z,80.95
2022-10-16T04:11:41.116Z,93.72
2022-10-16T04:14:08.486Z,88.18
2022-10-16T04:16:35.930Z,88.70
2022-10-16T04:19:04.081Z,93.45
2022-10-16T04:21:31.431Z,84.00
2022-10-16T04:23:58.759Z,86.15
2022-10-16T04:26:26.055Z,94.55
2022-10-16T04:28:53.426Z,93.80
2022-10-16T04:31:21.194Z,95.20
2022-10-16T04:33:48.681Z,94.78
2022-10-16T04:36:15.977Z,102.53
2022-10-16T04:38:43.406Z,98.97
2022-10-16T04:41:10.785Z,99.40
2022-10-16T04:43:38.087Z,92.85
2022-10-16T04:46:06.057Z,89.85
2022-10-16T04:48:33.752Z,95.80
2022-10-16T04:51:01.396Z,95.65
2022-10-16T04:53:28.710Z,92.32
2022-10-16T04:55:57.071Z,102.20
2022-10-16T04:58:24.650Z,94.82
2022-10-16T05:00:51.917Z,91.57
2022-10-16T05:03:19.428Z,100.97
2022-10-16T05:05:47.479Z,115.47
2022-10-16T05:08:16.303Z,92.38
2022-10-16T05:10:45.369Z,98.30
2022-10-16T05:13:12.841Z,95.20
2022-10-16T05:15:40.257Z,96.95
2022-10-16T05:18:07.615Z,108.95
2022-10-16T05:20:35.429Z,98.03
2022-10-16T05:23:02.808Z,102.03
2022-10-16T05:25:30.215Z,102.45
2022-10-16T05:27:57.577Z,105.88
2022-10-16T05:30:25.022Z,99.32
2022-10-16T05:32:52.639Z,106.18
2022-10-16T05:35:20.457Z,103.80
2022-10-16T05:37:48.637Z,98.10
2022-10-16T05:40:17.062Z,103.25
2022-10-16T05:42:44.332Z,98.53
2022-10-16T05:45:13.270Z,101.60
2022-10-16T05:47:41.064Z,99.43
2022-10-16T05:50:08.742Z,103.13
2022-10-16T05:52:36.445Z,101.28
2022-10-16T05:55:04.477Z,91.78
2022-10-16T05:57:32.204Z,99.45
2022-10-16T05:59:59.545Z,99.82
2022-10-16T06:02:26.860Z,108.70
2022-10-16T06:04:54.869Z,91.93
2022-10-16T06:07:23.094Z,109.03
2022-10-16T06:09:51.364Z,103.07
2022-10-16T06:12:18.679Z,107.38
2022-10-16T06:14:49.836Z,105.43
2022-10-16T06:17:17.347Z,94.50
2022-10-16T06:19:44.826Z,101.80
2022-10-16T06:22:12.185Z,96.57
2022-10-16T06:24:39.518Z,107.45
2022-10-16T06:27:06.807Z,88.03
2022-10-16T06:29:34.273Z,113.22
2022-10-16T06:32:01.671Z,92.43
2022-10-16T06:34:29.074Z,102.68
2022-10-16T06:36:56.580Z,86.70
2022-10-16T06:39:23.917Z,100.95
2022-10-16T06:41:51.469Z,104.13
2022-10-16T06:44:18.877Z,97.55
2022-10-16T06:46:46.189Z,94.38
2022-10-16T06:49:13.610Z,101.25
2022-10-16T06:51:43.347Z,96.30
2022-10-16T06:54:11.143Z,103.43
2022-10-16T06:56:38.861Z,98.80
2022-10-16T06:59:06.356Z,100.53
2022-10-16T07:01:34.330Z,99.78
2022-10-16T07:04:03.194Z,97.85
2022-10-16T07:06:33.553Z,87.65
2022-10-16T07:09:05.183Z,96.55
2022-10-16T07:11:33.218Z,96.70
2022-10-16T07:14:00.817Z,98.97
2022-10-16T07:16:30.729Z,90.65
2022-10-16T07:19:01.082Z,107.15
2022-10-16T07:21:31.218Z,93.15
2022-10-16T07:24:02.106Z,102.35
2022-10-16T07:26:32.067Z,93.03
2022-10-16T07:28:59.667Z,104.63
2022-10-16T07:31:27.332Z,92.78
2022-10-16T07:33:54.944Z,107.57
2022-10-16T07:36:22.867Z,100.45
2022-10-16T07:38:52.814Z,101.72
2022-10-16T07:41:22.874Z,105.78
2022-10-16T07:43:52.433Z,101.72
2022-10-16T07:46:21.684Z,105.53
2022-10-16T07:48:49.693Z,104.78
2022-10-16T07:51:19.407Z,105.07
2022-10-16T07:53:48.060Z,112.60
2022-10-16T07:56:16.288Z,113.88
2022-10-16T07:58:43.685Z,109.43
2022-10-16T08:01:14.454Z,110.72
2022-10-16T08:03:46.929Z,108.47
2022-10-16T08:06:14.677Z,118.15
2022-10-16T08:08:42.314Z,94.47
2022-10-16T08:11:10.050Z,109.88
2022-10-16T08:13:37.873Z,108.38
2022-10-16T08:16:08.966Z,114.20
2022-10-16T08:18:37.715Z,111.25
2022-10-16T08:21:06.695Z,101.40
2022-10-16T08:23:34.774Z,100.43
2022-10-16T08:26:09.236Z,105.00
2022-10-16T08:28:37.109Z,101.43
2022-10-16T08:31:12.855Z,105.88
2022-10-16T08:33:42.989Z,109.35
2022-10-16T08:36:11.942Z,101.82
2022-10-16T08:38:40.070Z,95.10
2022-10-16T08:41:28.932Z,101.25
2022-10-16T08:44:02.078Z,107.57
2022-10-16T08:46:38.324Z,106.60
2022-10-16T08:49:12.396Z,98.82
2022-10-16T08:51:43.343Z,95.63
2022-10-16T08:54:29.514Z,96.47
2022-10-16T08:56:57.870Z,103.95
2022-10-16T08:59:25.249Z,107.97
2022-10-16T09:01:53.527Z,90.03
2022-10-16T09:04:45.220Z,106.03
2022-10-16T09:07:31.365Z,108.47
2022-10-16T09:10:06.731Z,98.30
2022-10-16T09:12:52.730Z,107.22
2022-10-16T09:15:28.987Z,93.00
2022-10-16T09:18:08.377Z,101.55
2022-10-16T09:20:52.835Z,88.43
2022-10-16T09:23:26.743Z,97.88
2022-10-16T09:25:55.319Z,99.03
2022-10-16T09:28:22.821Z,98.10
2022-10-16T09:30:50.867Z,80.38
2022-10-16T09:33:21.449Z,94.28
2022-10-16T09:35:52.684Z,96.53
2022-10-16T09:38:30.339Z,98.30
2022-10-16T09:41:03.168Z,98.47
2022-10-16T09:43:54.599Z,91.03
2022-10-16T09:46:33.538Z,98.00
2022-10-16T09:49:21.756Z,99.38
2022-10-16T09:51:49.237Z,93.68
2022-10-16T09:54:19.337Z,108.13
2022-10-16T09:56:50.233Z,100.53
2022-10-16T09:59:19.980Z,90.18
2022-10-16T10:01:52.387Z,96.28
2022-10-16T10:04:24.886Z,82.53
2022-10-16T10:06:55.365Z,76.93
2022-10-16T10:09:28.363Z,82.80
2022-10-16T10:12:04.489Z,87.05
2022-10-16T10:14:34.557Z,79.13
2022-10-16T10:17:07.748Z,76.85
2022-10-16T10:19:43.487Z,77.88
2022-10-16T10:22:29.821Z,77.82
2022-10-16T10:24:58.054Z,72.55
2022-10-16T10:27:44.212Z,84.95
2022-10-16T10:30:42.190Z,65.05
2022-10-16T10:33:21.333Z,76.15
2022-10-16T10:36:04.076Z,71.40
2022-10-16T10:39:01.787Z,71.25
2022-10-16T10:41:55.613Z,75.85
2022-10-16T10:44:56.528Z,75.13
2022-10-16T10:47:29.657Z,64.43
2022-10-16T10:50:07.914Z,73.55
2022-10-16T10:52:42.999Z,65.60
2022-10-16T10:55:26.696Z,69.75
2022-10-16T10:58:19.460Z,82.70
2022-10-16T11:01:09.422Z,66.57
2022-10-16T11:04:03.041Z,72.78
2022-10-16T11:07:13.081Z,69.82
2022-10-16T11:09:50.894Z,66.00
2022-10-16T11:12:30.074Z,70.90
2022-10-16T11:15:03.158Z,73.63
2022-10-16T11:17:35.283Z,72.35
2022-10-16T11:20:24.100Z,84.97
2022-10-16T11:23:17.177Z,85.35
2022-10-16T11:25:46.249Z,80.18
2022-10-16T11:28:16.417Z,79.70
2022-10-16T11:30:53.326Z,78.70
2022-10-16T11:33:42.510Z,77.97
2022-10-16T11:36:19.113Z,80.20
2022-10-16T11:38:49.489Z,89.22
2022-10-16T11:41:27.871Z,93.70
2022-10-16T11:44:04.259Z,80.28
2022-10-16T11:46:47.807Z,86.57
2022-10-16T11:49:27.470Z,79.30
2022-10-16T11:52:25.694Z,76.38
2022-10-16T11:54:56.993Z,84.78
2022-10-16T11:57:48.111Z,78.38
2022-10-16T12:00:29.933Z,87.80
2022-10-16T12:03:23.339Z,87.47
2022-10-16T12:06:14.822Z,93.72
2022-10-16T12:08:45.023Z,85.68
2022-10-16T12:11:28.726Z,80.47
2022-10-16T12:14:14.133Z,81.30
2022-10-16T12:17:22.829Z,78.65
2022-10-16T12:20:20.786Z,94.35
2022-10-16T12:23:23.095Z,74.45
2022-10-16T12:28:27.339Z,81.15
2022-10-16T12:31:17.672Z,82.88
2022-10-16T12:33:56.034Z,74.93
2022-10-16T12:36:35.332Z,73.53
2022-10-16T12:39:03.400Z,86.10
2022-10-16T12:41:31.804Z,73.95
2022-10-16T12:44:02.427Z,86.70
2022-10-16T12:46:29.711Z,85.97
2022-10-16T12:49:20.532Z,80.03
2022-10-16T12:51:47.867Z,74.13
2022-10-16T12:54:21.354Z,76.20
2022-10-16T12:57:13.156Z,76.18
2022-10-16T13:00:05.386Z,88.80
2022-10-16T13:02:50.706Z,81.40
2022-10-16T13:08:26.141Z,76.55
2022-10-16T13:11:07.938Z,73.28
2022-10-16T13:13:45.985Z,71.45
2022-10-16T13:16:22.306Z,69.63
2022-10-16T13:19:06.393Z,71.65
2022-10-16T13:21:52.698Z,76.88
2022-10-16T13:24:41.180Z,75.18
2022-10-16T13:27:36.213Z,69.13
2022-10-16T13:30:17.824Z,67.18
2022-10-16T13:32:50.359Z,70.45
2022-10-16T13:35:27.360Z,61.75
2022-10-16T13:38:06.675Z,77.78
2022-10-16T13:40:35.674Z,71.03
2022-10-16T13:43:25.952Z,72.75
2022-10-16T13:48:25.130Z,77.63
2022-10-16T13:51:01.490Z,70.75
2022-10-16T13:53:32.357Z,75.10
2022-10-16T13:56:01.303Z,73.78
2022-10-16T13:58:28.661Z,61.03
2022-10-16T14:01:02.015Z,73.88
2022-10-16T14:03:30.526Z,67.30
2022-10-16T14:06:07.605Z,75.82
2022-10-16T14:08:35.091Z,74.85
2022-10-16T14:11:03.055Z,61.40
2022-10-16T14:13:44.862Z,66.38
2022-10-16T14:16:21.926Z,60.60
2022-10-16T14:19:02.174Z,71.80
2022-10-16T14:21:30.265Z,69.60
2022-10-16T14:23:57.878Z,61.53
2022-10-16T14:26:28.001Z,65.05
2022-10-16T14:29:18.298Z,68.28
2022-10-16T14:31:55.885Z,62.75
2022-10-16T14:34:28.422Z,80.03
2022-10-16T14:36:57.566Z,65.80
2022-10-16T14:39:26.641Z,68.50
2022-10-16T14:41:57.901Z,56.22
2022-10-16T14:44:32.260Z,51.40
2022-10-16T14:47:08.189Z,56.20
2022-10-16T14:49:35.967Z,56.28
2022-10-16T14:52:06.207Z,60.47
2022-10-16T14:54:33.574Z,55.38
2022-10-16T14:57:00.874Z,63.03
2022-10-16T14:59:38.604Z,62.05
2022-10-16T15:02:32.156Z,64.25
2022-10-16T15:05:12.776Z,57.63
2022-10-16T15:07:40.060Z,60.67
2022-10-16T15:10:07.535Z,60.65
2022-10-16T15:12:34.948Z,52.67
2022-10-16T15:15:02.570Z,55.90
2022-10-16T15:17:30.026Z,52.50
2022-10-16T15:19:59.380Z,48.85
2022-10-16T15:22:26.750Z,54.13
2022-10-16T15:24:54.133Z,62.92
2022-10-16T15:27:21.387Z,60.15
2022-10-16T15:29:48.696Z,57.30
2022-10-16T15:32:16.103Z,69.05
2022-10-16T15:34:43.580Z,62.30
2022-10-16T15:37:12.878Z,60.63
2022-10-16T15:39:41.359Z,57.45
2022-10-16T15:42:08.950Z,62.75
2022-10-16T15:44:36.332Z,66.03
2022-10-16T15:47:03.674Z,54.20
2022-10-16T15:49:30.942Z,51.95
2022-10-16T15:51:58.622Z,54.97
2022-10-16T15:54:25.937Z,58.28
2022-10-16T15:56:53.246Z,43.65
2022-10-16T15:59:21.819Z,43.97
2022-10-16T16:01:49.264Z,56.65
2022-10-16T16:04:42.174Z,66.07
2022-10-16T16:07:08.257Z,53.97
2022-10-16T16:09:35.762Z,56.83
2022-10-16T16:12:03.461Z,63.88
2022-10-16T16:14:30.918Z,57.22
2022-10-16T16:16:59.016Z,52.72
2022-10-16T16:19:26.369Z,56.97
2022-10-16T16:21:53.650Z,62.25
2022-10-16T16:24:21.180Z,64.57
2022-10-16T16:26:48.524Z,64.35
2022-10-16T16:29:17.004Z,74.80
2022-10-16T16:31:44.425Z,61.70
2022-10-16T16:34:11.825Z,70.10
2022-10-16T16:36:40.952Z,70.40
2022-10-16T16:39:08.834Z,68.82
2022-10-16T16:41:36.183Z,67.63
2022-10-16T16:44:06.302Z,66.38
2022-10-16T16:46:34.694Z,66.22
2022-10-16T16:49:04.948Z,70.75
2022-10-16T16:51:35.692Z,56.35
2022-10-16T16:54:07.936Z,63.72
2022-10-16T16:56:35.925Z,59.30
2022-10-16T16:59:03.841Z,60.38
2022-10-16T17:01:32.433Z,56.95
2022-10-16T17:04:00.689Z,65.97
2022-10-16T17:06:32.712Z,58.08
2022-10-16T17:09:03.448Z,53.35
2022-10-16T17:11:31.018Z,52.40
2022-10-16T17:14:00.159Z,52.83
2022-10-16T17:16:31.282Z,48.58
2022-10-16T17:19:04.514Z,55.17
2022-10-16T17:21:33.077Z,50.03
2022-10-16T17:24:01.544Z,50.72
2022-10-16T17:26:29.269Z,56.28
2022-10-16T17:28:59.126Z,57.65
2022-10-16T17:31:29.604Z,54.10
2022-10-16T17:34:02.248Z,54.78
2022-10-16T17:36:33.083Z,52.78
2022-10-16T17:39:04.715Z,63.25
2022-10-16T17:41:33.902Z,66.43
2022-10-16T17:44:01.836Z,63.90
2022-10-16T17:46:29.599Z,69.40
2022-10-16T17:48:57.143Z,71.63
2022-10-16T17:51:29.591Z,78.07
2022-10-16T17:54:00.224Z,74.20
2022-10-16T17:56:28.926Z,77.70
2022-10-16T17:59:00.394Z,72.85
2022-10-16T18:01:30.218Z,70.38
2022-10-16T18:04:00.456Z,81.53
2022-10-16T18:06:28.464Z,81.57
2022-10-16T18:08:57.940Z,73.32
2022-10-16T18:11:26.221Z,78.30
2022-10-16T18:13:54.591Z,75.88
2022-10-16T18:16:22.862Z,76.35
2022-10-16T18:18:50.497Z,80.03
2022-10-16T18:21:20.302Z,77.00
2022-10-16T18:23:51.000Z,76.82
2022-10-16T18:28:47.985Z,76.38
2022-10-16T18:31:16.988Z,75.88
2022-10-16T18:33:50.206Z,69.32
2022-10-16T18:36:23.288Z,81.53
2022-10-16T18:38:51.083Z,84.97
2022-10-16T18:41:19.313Z,73.45
2022-10-16T18:43:47.224Z,81.22
2022-10-16T18:46:17.593Z,82.35
2022-10-16T18:48:46.586Z,77.43
2022-10-16T18:51:26.402Z,80.22
2022-10-16T18:53:56.923Z,78.35
2022-10-16T18:56:25.438Z,81.13
2022-10-16T18:58:59.243Z,73.97
2022-10-16T19:01:29.718Z,67.78
2022-10-16T19:03:59.682Z,78.72
2022-10-16T19:06:28.693Z,71.50
2022-10-16T19:08:57.231Z,85.05
2022-10-16T19:11:26.073Z,93.32
2022-10-16T19:13:56.845Z,75.22
2022-10-16T19:16:31.157Z,79.60
2022-10-16T19:19:00.678Z,79.82
2022-10-16T19:21:29.861Z,75.40
2022-10-16T19:23:59.876Z,81.40
2022-10-16T19:26:28.797Z,75.72
2022-10-16T19:28:59.164Z,77.03
2022-10-16T19:31:28.440Z,71.50
2022-10-16T19:33:58.746Z,77.25
2022-10-16T19:36:29.689Z,76.80
2022-10-16T19:39:02.905Z,81.47
2022-10-16T19:41:31.246Z,82.32
2022-10-16T19:44:03.651Z,83.43
2022-10-16T19:46:31.906Z,90.07
2022-10-16T19:49:02.050Z,77.35
2022-10-16T19:51:30.963Z,73.28
2022-10-16T19:54:00.475Z,76.63
2022-10-16T19:56:30.690Z,73.38
2022-10-16T19:58:59.761Z,77.00
2022-10-16T20:01:30.116Z,76.20
2022-10-16T20:03:58.394Z,75.85
2022-10-16T20:06:25.917Z,72.80
2022-10-16T20:08:54.909Z,80.25
2022-10-16T20:11:28.067Z,73.75
2022-10-16T20:13:55.913Z,76.45
2022-10-16T20:16:23.514Z,70.53
2022-10-16T20:18:52.985Z,64.47
2022-10-16T20:21:26.991Z,69.35
2022-10-16T20:23:54.605Z,66.72
2022-10-16T20:26:24.390Z,71.47
2022-10-16T20:28:52.610Z,69.18
2022-10-16T20:31:26.627Z,70.65
2022-10-16T20:33:55.281Z,56.10
2022-10-16T20:36:26.068Z,62.63
2022-10-16T20:38:53.551Z,70.70
2022-10-16T20:41:21.136Z,65.30
2022-10-16T20:43:49.983Z,71.25
2022-10-16T20:46:20.837Z,66.97
2022-10-16T20:48:48.416Z,75.65
2022-10-16T20:51:29.118Z,66.45
2022-10-16T20:53:58.702Z,72.45
2022-10-16T20:56:27.966Z,67.00
2022-10-16T20:58:55.322Z,70.32
2022-10-16T21:01:25.855Z,68.15
2022-10-16T21:03:56.634Z,78.50
2022-10-16T21:06:24.646Z,65.20
2022-10-16T21:08:52.288Z,64.22
2022-10-16T21:11:21.196Z,69.43
2022-10-16T21:13:48.946Z,64.57
2022-10-16T21:16:17.649Z,68.03
2022-10-16T21:18:45.115Z,63.85
2022-10-16T21:21:26.921Z,76.22
2022-10-16T21:23:55.765Z,70.10
2022-10-16T21:26:26.325Z,68.70
2022-10-16T21:28:58.571Z,66.30
2022-10-16T21:31:26.325Z,73.57
2022-10-16T21:33:55.378Z,70.18
2022-10-16T21:36:25.683Z,64.47
2022-10-16T21:38:53.562Z,72.40
2022-10-16T21:41:27.430Z,73.35
2022-10-16T21:43:56.384Z,77.15
2022-10-16T21:46:26.884Z,74.22
2022-10-16T21:48:58.767Z,71.22
2022-10-16T21:53:54.848Z,75.68
2022-10-16T21:56:23.255Z,77.28
2022-10-16T21:58:50.792Z,79.68
2022-10-16T22:01:20.621Z,75.18
2022-10-16T22:03:48.656Z,82.32
2022-10-16T22:06:18.267Z,87.20
2022-10-16T22:08:47.054Z,74.32
2022-10-16T22:11:15.736Z,75.30
2022-10-16T22:13:43.442Z,75.85
2022-10-16T22:16:11.354Z,77.80
2022-10-16T22:18:40.039Z,79.50
2022-10-16T22:21:09.008Z,75.53
2022-10-16T22:23:36.815Z,76.50
2022-10-16T22:26:09.514Z,80.78
2022-10-16T22:28:38.263Z,80.82
2022-10-16T22:31:08.486Z,85.72
2022-10-16T22:33:36.005Z,83.05
2022-10-16T22:36:05.754Z,76.00
2022-10-16T22:38:34.521Z,74.90
2022-10-16T22:41:13.144Z,81.55
2022-10-16T22:43:43.945Z,84.90
2022-10-16T22:46:14.114Z,88.22
2022-10-16T22:48:41.768Z,92.05
2022-10-16T22:51:09.661Z,75.63
2022-10-16T22:53:37.088Z,85.43
2022-10-16T22:56:04.629Z,80.35
2022-10-16T22:58:32.146Z,82.72
2022-10-16T23:00:59.706Z,86.38
2022-10-16T23:03:27.235Z,85.80
2022-10-16T23:05:54.598Z,89.15
2022-10-16T23:08:21.957Z,81.55
2022-10-16T23:10:49.786Z,78.03
2022-10-16T23:13:17.118Z,73.78
2022-10-16T23:15:45.335Z,89.97
2022-10-16T23:18:12.709Z,79.85
2022-10-16T23:20:40.781Z,80.68
2022-10-16T23:23:08.790Z,86.82
2022-10-16T23:25:37.165Z,89.70
2022-10-16T23:28:04.844Z,81.85
2022-10-16T23:30:32.279Z,81.68
2022-10-16T23:32:59.610Z,82.10
2022-10-16T23:35:26.984Z,78.80
2022-10-16T23:37:54.443Z,85.22
2022-10-16T23:40:21.795Z,75.38
2022-10-16T23:42:49.122Z,82.38
2022-10-16T23:45:16.495Z,82.10
2022-10-16T23:47:43.908Z,79.65
2022-10-16T23:50:11.286Z,90.32
2022-10-16T23:52:38.588Z,84.30
2022-10-16T23:55:06.318Z,89.55
2022-10-16T23:57:33.696Z,71.93
